Terminal Aerodrome Forecast
Issued by NWS

Home | Current Version | Previous Version | Text Only | Print | Product List | Glossary On
Versions: 1 2 3 4 5 6 7 8 9 10 11 12 13 14 15 16 17 18 19 20 21
000
FTUS43 KGRR 160500
TAFMKG
TAF
KMKG 160540Z 1606/1706 VRB03KT 1/4SM FG OVC002
     FM161400 34004KT 2SM BR BKN008
     FM161500 32005KT 4SM BR BKN012
     FM161600 28007KT P6SM SCT030=

USA.gov is the U.S. government's official web portal to all federal, state and local government web resources and services.